sensor_id;sensor_type;location;lat;lon;timestamp;pressure;altitude;pressure_sealevel;temperature;humidity
49825;BME280;35714;55.708;37.478;2023-05-03T00:00:41;99608.25;;;9.41;38.58
49825;BME280;35714;55.708;37.478;2023-05-03T00:03:06;99605.16;;;9.37;38.53
49825;BME280;35714;55.708;37.478;2023-05-03T00:05:32;99595.38;;;9.36;38.88
49825;BME280;35714;55.708;37.478;2023-05-03T00:07:58;99597.50;;;9.34;38.60
49825;BME280;35714;55.708;37.478;2023-05-03T00:10:25;99592.47;;;9.38;38.53
49825;BME280;35714;55.708;37.478;2023-05-03T00:12:50;99589.16;;;9.36;38.79
49825;BME280;35714;55.708;37.478;2023-05-03T00:15:16;99586.69;;;9.34;38.52
49825;BME280;35714;55.708;37.478;2023-05-03T00:17:42;99588.94;;;9.37;38.77
49825;BME280;35714;55.708;37.478;2023-05-03T00:20:08;99591.03;;;9.35;38.79
49825;BME280;35714;55.708;37.478;2023-05-03T00:22:34;99585.00;;;9.33;38.96
49825;BME280;35714;55.708;37.478;2023-05-03T00:25:01;99585.00;;;9.33;39.16
49825;BME280;35714;55.708;37.478;2023-05-03T00:27:30;99587.94;;;9.32;39.20
49825;BME280;35714;55.708;37.478;2023-05-03T00:29:56;99577.78;;;9.27;39.15
49825;BME280;35714;55.708;37.478;2023-05-03T00:32:22;99585.91;;;9.27;39.08
49825;BME280;35714;55.708;37.478;2023-05-03T00:34:54;99575.91;;;9.28;39.28
49825;BME280;35714;55.708;37.478;2023-05-03T00:37:21;99566.81;;;9.22;39.26
49825;BME280;35714;55.708;37.478;2023-05-03T00:39:47;99562.44;;;9.21;39.39
49825;BME280;35714;55.708;37.478;2023-05-03T00:42:13;99570.56;;;9.21;39.31
49825;BME280;35714;55.708;37.478;2023-05-03T00:44:40;99570.56;;;9.21;39.42
49825;BME280;35714;55.708;37.478;2023-05-03T00:47:05;99561.63;;;9.20;39.32
49825;BME280;35714;55.708;37.478;2023-05-03T00:49:32;99543.94;;;9.18;39.39
49825;BME280;35714;55.708;37.478;2023-05-03T00:51:58;99555.97;;;9.22;39.61
49825;BME280;35714;55.708;37.478;2023-05-03T00:54:28;99541.22;;;9.18;39.68
49825;BME280;35714;55.708;37.478;2023-05-03T00:56:57;99545.16;;;9.22;39.79
49825;BME280;35714;55.708;37.478;2023-05-03T00:59:23;99538.09;;;9.21;39.77
49825;BME280;35714;55.708;37.478;2023-05-03T01:01:51;99536.44;;;9.20;39.69
49825;BME280;35714;55.708;37.478;2023-05-03T01:04:18;99528.34;;;9.20;39.63
49825;BME280;35714;55.708;37.478;2023-05-03T01:09:31;99522.25;;;9.25;39.53
49825;BME280;35714;55.708;37.478;2023-05-03T01:17:08;99526.38;;;9.27;39.55
49825;BME280;35714;55.708;37.478;2023-05-03T01:19:43;99514.81;;;9.20;39.73
49825;BME280;35714;55.708;37.478;2023-05-03T01:22:20;99529.25;;;9.32;39.81
49825;BME280;35714;55.708;37.478;2023-05-03T01:27:17;99515.50;;;9.34;39.44
49825;BME280;35714;55.708;37.478;2023-05-03T01:29:43;99511.72;;;9.35;39.56
49825;BME280;35714;55.708;37.478;2023-05-03T01:32:16;99505.50;;;9.34;39.53
49825;BME280;35714;55.708;37.478;2023-05-03T01:34:52;99519.63;;;9.36;39.79
49825;BME280;35714;55.708;37.478;2023-05-03T01:37:19;99514.19;;;9.36;39.49
49825;BME280;35714;55.708;37.478;2023-05-03T01:39:57;99500.22;;;9.39;39.55
49825;BME280;35714;55.708;37.478;2023-05-03T01:42:25;99500.84;;;9.42;39.58
49825;BME280;35714;55.708;37.478;2023-05-03T01:44:52;99510.81;;;9.41;39.59
49825;BME280;35714;55.708;37.478;2023-05-03T01:47:19;99502.47;;;9.43;39.55
49825;BME280;35714;55.708;37.478;2023-05-03T01:49:45;99488.94;;;9.43;39.38
49825;BME280;35714;55.708;37.478;2023-05-03T01:52:11;99490.75;;;9.49;39.42
49825;BME280;35714;55.708;37.478;2023-05-03T01:54:36;99497.44;;;9.46;39.39
49825;BME280;35714;55.708;37.478;2023-05-03T01:57:02;99506.19;;;9.48;39.27
49825;BME280;35714;55.708;37.478;2023-05-03T01:59:28;99502.78;;;9.53;39.34
49825;BME280;35714;55.708;37.478;2023-05-03T02:01:54;99503.63;;;9.53;39.58
49825;BME280;35714;55.708;37.478;2023-05-03T02:04:19;99500.44;;;9.56;39.31
49825;BME280;35714;55.708;37.478;2023-05-03T02:06:45;99502.78;;;9.53;39.48
49825;BME280;35714;55.708;37.478;2023-05-03T02:09:11;99487.00;;;9.50;39.35
49825;BME280;35714;55.708;37.478;2023-05-03T02:11:37;99506.09;;;9.55;39.38
49825;BME280;35714;55.708;37.478;2023-05-03T02:14:02;99489.50;;;9.51;39.42
49825;BME280;35714;55.708;37.478;2023-05-03T02:16:28;99501.88;;;9.59;39.61
49825;BME280;35714;55.708;37.478;2023-05-03T02:18:54;99491.44;;;9.63;39.29
49825;BME280;35714;55.708;37.478;2023-05-03T02:21:24;99493.47;;;9.67;39.30
49825;BME280;35714;55.708;37.478;2023-05-03T02:23:51;99501.34;;;9.69;39.13
49825;BME280;35714;55.708;37.478;2023-05-03T02:26:20;99498.66;;;9.69;39.28
49825;BME280;35714;55.708;37.478;2023-05-03T02:28:46;99497.22;;;9.66;39.10
49825;BME280;35714;55.708;37.478;2023-05-03T02:31:12;99487.81;;;9.69;39.38
49825;BME280;35714;55.708;37.478;2023-05-03T02:33:40;99479.34;;;9.65;39.34
49825;BME280;35714;55.708;37.478;2023-05-03T02:36:06;99490.75;;;9.67;39.46
49825;BME280;35714;55.708;37.478;2023-05-03T02:38:32;99485.34;;;9.67;39.51
49825;BME280;35714;55.708;37.478;2023-05-03T02:40:58;99485.91;;;9.69;39.47
49825;BME280;35714;55.708;37.478;2023-05-03T02:43:24;99480.97;;;9.66;39.60
49825;BME280;35714;55.708;37.478;2023-05-03T02:45:50;99485.69;;;9.71;39.55
49825;BME280;35714;55.708;37.478;2023-05-03T02:48:16;99485.00;;;9.75;39.50
49825;BME280;35714;55.708;37.478;2023-05-03T02:50:42;99491.63;;;9.80;39.41
49825;BME280;35714;55.708;37.478;2023-05-03T02:53:08;99483.66;;;9.85;39.45
49825;BME280;35714;55.708;37.478;2023-05-03T02:55:34;99481.06;;;9.90;39.22
49825;BME280;35714;55.708;37.478;2023-05-03T02:58:00;99479.81;;;9.92;39.14
49825;BME280;35714;55.708;37.478;2023-05-03T03:00:26;99487.25;;;9.97;39.30
49825;BME280;35714;55.708;37.478;2023-05-03T03:02:52;99487.59;;;10.01;38.99
49825;BME280;35714;55.708;37.478;2023-05-03T03:05:19;99491.97;;;10.02;39.21
49825;BME280;35714;55.708;37.478;2023-05-03T03:07:49;99483.94;;;9.95;39.27
49825;BME280;35714;55.708;37.478;2023-05-03T03:10:16;99496.69;;;10.06;39.13
49825;BME280;35714;55.708;37.478;2023-05-03T03:12:42;99498.34;;;10.07;39.06
49825;BME280;35714;55.708;37.478;2023-05-03T03:15:12;99499.53;;;10.11;39.01
49825;BME280;35714;55.708;37.478;2023-05-03T03:17:38;99488.59;;;10.18;38.54
49825;BME280;35714;55.708;37.478;2023-05-03T03:20:07;99501.47;;;10.23;38.78
49825;BME280;35714;55.708;37.478;2023-05-03T03:22:37;99505.81;;;10.24;38.80
49825;BME280;35714;55.708;37.478;2023-05-03T03:25:04;99490.63;;;10.23;38.74
49825;BME280;35714;55.708;37.478;2023-05-03T03:27:32;99496.66;;;10.25;38.43
49825;BME280;35714;55.708;37.478;2023-05-03T03:29:58;99496.34;;;10.33;38.69
49825;BME280;35714;55.708;37.478;2023-05-03T03:32:24;99497.16;;;10.34;38.63
49825;BME280;35714;55.708;37.478;2023-05-03T03:34:51;99502.94;;;10.37;38.48
49825;BME280;35714;55.708;37.478;2023-05-03T03:37:18;99499.63;;;10.35;38.70
49825;BME280;35714;55.708;37.478;2023-05-03T03:39:43;99512.16;;;10.36;38.55
49825;BME280;35714;55.708;37.478;2023-05-03T03:42:10;99496.13;;;10.35;38.47
49825;BME280;35714;55.708;37.478;2023-05-03T03:44:37;99511.06;;;10.37;38.50
49825;BME280;35714;55.708;37.478;2023-05-03T03:47:04;99507.63;;;10.30;39.22
49825;BME280;35714;55.708;37.478;2023-05-03T03:49:29;99511.38;;;10.29;39.60
49825;BME280;35714;55.708;37.478;2023-05-03T03:51:55;99510.66;;;10.22;39.70
49825;BME280;35714;55.708;37.478;2023-05-03T03:54:21;99530.69;;;10.21;40.59
49825;BME280;35714;55.708;37.478;2023-05-03T03:56:49;99522.41;;;10.16;41.44
49825;BME280;35714;55.708;37.478;2023-05-03T03:59:16;99537.94;;;10.08;41.71
49825;BME280;35714;55.708;37.478;2023-05-03T04:01:43;99526.78;;;9.98;42.03
49825;BME280;35714;55.708;37.478;2023-05-03T04:04:10;99518.53;;;9.93;42.27
49825;BME280;35714;55.708;37.478;2023-05-03T04:06:36;99533.16;;;9.92;42.67
49825;BME280;35714;55.708;37.478;2023-05-03T04:09:06;99520.66;;;9.91;42.37
49825;BME280;35714;55.708;37.478;2023-05-03T04:11:33;99536.00;;;9.97;42.25
49825;BME280;35714;55.708;37.478;2023-05-03T04:14:01;99527.53;;;10.05;42.19
49825;BME280;35714;55.708;37.478;2023-05-03T04:16:29;99515.78;;;10.11;41.92
49825;BME280;35714;55.708;37.478;2023-05-03T04:18:55;99519.84;;;10.21;41.91
49825;BME280;35714;55.708;37.478;2023-05-03T04:21:21;99519.97;;;10.26;42.35
49825;BME280;35714;55.708;37.478;2023-05-03T04:23:47;99522.59;;;10.33;42.35
49825;BME280;35714;55.708;37.478;2023-05-03T04:26:15;99518.63;;;10.35;42.27
49825;BME280;35714;55.708;37.478;2023-05-03T04:28:42;99526.75;;;10.35;42.78
49825;BME280;35714;55.708;37.478;2023-05-03T04:31:09;99529.88;;;10.32;43.07
49825;BME280;35714;55.708;37.478;2023-05-03T04:33:35;99534.28;;;10.33;43.59
49825;BME280;35714;55.708;37.478;2023-05-03T04:36:04;99541.78;;;10.31;44.05
49825;BME280;35714;55.708;37.478;2023-05-03T04:38:32;99556.41;;;10.30;45.11
49825;BME280;35714;55.708;37.478;2023-05-03T04:41:00;99555.53;;;10.18;45.80
49825;BME280;35714;55.708;37.478;2023-05-03T04:43:27;99549.13;;;10.12;46.23
49825;BME280;35714;55.708;37.478;2023-05-03T04:45:53;99554.63;;;10.05;46.59
49825;BME280;35714;55.708;37.478;2023-05-03T04:48:22;99555.53;;;9.99;46.61
49825;BME280;35714;55.708;37.478;2023-05-03T04:50:48;99568.19;;;9.87;47.12
49825;BME280;35714;55.708;37.478;2023-05-03T04:53:16;99561.06;;;9.74;47.82
49825;BME280;35714;55.708;37.478;2023-05-03T04:55:47;99563.09;;;9.60;48.64
49825;BME280;35714;55.708;37.478;2023-05-03T04:58:13;99555.13;;;9.65;48.44
49825;BME280;35714;55.708;37.478;2023-05-03T05:00:41;99555.50;;;9.69;48.33
49825;BME280;35714;55.708;37.478;2023-05-03T05:03:13;99558.25;;;9.81;48.07
49825;BME280;35714;55.708;37.478;2023-05-03T05:05:39;99567.16;;;9.88;48.07
49825;BME280;35714;55.708;37.478;2023-05-03T05:08:07;99565.69;;;10.04;47.64
49825;BME280;35714;55.708;37.478;2023-05-03T05:10:41;99560.63;;;10.26;47.12
49825;BME280;35714;55.708;37.478;2023-05-03T05:13:09;99561.88;;;10.42;46.89
49825;BME280;35714;55.708;37.478;2023-05-03T05:15:35;99557.69;;;10.58;46.79
49825;BME280;35714;55.708;37.478;2023-05-03T05:18:01;99558.19;;;10.67;46.51
49825;BME280;35714;55.708;37.478;2023-05-03T05:20:28;99556.78;;;10.88;46.12
49825;BME280;35714;55.708;37.478;2023-05-03T05:22:54;99550.09;;;10.90;45.91
49825;BME280;35714;55.708;37.478;2023-05-03T05:25:20;99562.50;;;10.98;45.87
49825;BME280;35714;55.708;37.478;2023-05-03T05:27:46;99561.09;;;11.07;45.79
49825;BME280;35714;55.708;37.478;2023-05-03T05:30:12;99568.41;;;11.18;45.78
49825;BME280;35714;55.708;37.478;2023-05-03T05:32:40;99555.09;;;11.29;45.55
49825;BME280;35714;55.708;37.478;2023-05-03T05:35:09;99559.88;;;11.50;44.55
49825;BME280;35714;55.708;37.478;2023-05-03T05:37:35;99555.63;;;11.54;44.81
49825;BME280;35714;55.708;37.478;2023-05-03T05:40:03;99562.47;;;11.69;44.58
49825;BME280;35714;55.708;37.478;2023-05-03T05:42:36;99557.72;;;12.00;44.32
49825;BME280;35714;55.708;37.478;2023-05-03T05:45:02;99562.22;;;12.23;43.89
49825;BME280;35714;55.708;37.478;2023-05-03T05:47:32;99564.22;;;12.27;43.48
49825;BME280;35714;55.708;37.478;2023-05-03T05:49:58;99561.00;;;12.31;43.36
49825;BME280;35714;55.708;37.478;2023-05-03T05:52:24;99569.75;;;12.33;43.19
49825;BME280;35714;55.708;37.478;2023-05-03T05:54:50;99558.78;;;12.27;43.20
49825;BME280;35714;55.708;37.478;2023-05-03T05:57:16;99562.66;;;12.32;43.29
49825;BME280;35714;55.708;37.478;2023-05-03T05:59:41;99575.56;;;12.24;43.31
49825;BME280;35714;55.708;37.478;2023-05-03T06:02:13;99571.31;;;12.28;43.39
49825;BME280;35714;55.708;37.478;2023-05-03T06:04:39;99565.28;;;12.26;43.12
49825;BME280;35714;55.708;37.478;2023-05-03T06:07:05;99557.81;;;12.34;43.20
49825;BME280;35714;55.708;37.478;2023-05-03T06:09:30;99557.03;;;12.50;42.88
49825;BME280;35714;55.708;37.478;2023-05-03T06:12:01;99557.47;;;12.76;42.67
49825;BME280;35714;55.708;37.478;2023-05-03T06:14:28;99571.25;;;13.03;41.48
49825;BME280;35714;55.708;37.478;2023-05-03T06:16:55;99571.59;;;13.07;41.04
49825;BME280;35714;55.708;37.478;2023-05-03T06:19:20;99573.41;;;13.18;41.10
49825;BME280;35714;55.708;37.478;2023-05-03T06:21:46;99579.00;;;13.28;40.68
49825;BME280;35714;55.708;37.478;2023-05-03T06:24:12;99567.59;;;13.31;40.54
49825;BME280;35714;55.708;37.478;2023-05-03T06:26:46;99576.22;;;13.40;40.36
49825;BME280;35714;55.708;37.478;2023-05-03T06:29:13;99588.59;;;13.48;39.84
49825;BME280;35714;55.708;37.478;2023-05-03T06:31:38;99588.72;;;13.58;39.65
49825;BME280;35714;55.708;37.478;2023-05-03T06:34:07;99581.94;;;13.61;39.53
49825;BME280;35714;55.708;37.478;2023-05-03T06:36:34;99577.47;;;13.71;39.70
49825;BME280;35714;55.708;37.478;2023-05-03T06:39:00;99574.91;;;13.82;39.50
49825;BME280;35714;55.708;37.478;2023-05-03T06:41:29;99587.63;;;13.98;39.17
49825;BME280;35714;55.708;37.478;2023-05-03T06:43:56;99594.09;;;14.14;39.00
49825;BME280;35714;55.708;37.478;2023-05-03T06:46:22;99572.75;;;14.33;38.87
49825;BME280;35714;55.708;37.478;2023-05-03T06:48:48;99581.22;;;14.59;38.00
49825;BME280;35714;55.708;37.478;2023-05-03T06:51:14;99568.13;;;14.88;37.73
49825;BME280;35714;55.708;37.478;2023-05-03T06:53:40;99581.84;;;15.31;37.44
49825;BME280;35714;55.708;37.478;2023-05-03T06:56:06;99580.00;;;15.84;36.54
49825;BME280;35714;55.708;37.478;2023-05-03T06:58:31;99585.69;;;16.31;35.72
49825;BME280;35714;55.708;37.478;2023-05-03T07:00:57;99587.16;;;16.74;34.55
49825;BME280;35714;55.708;37.478;2023-05-03T07:03:23;99579.50;;;17.18;34.40
49825;BME280;35714;55.708;37.478;2023-05-03T07:05:48;99593.69;;;17.71;33.01
49825;BME280;35714;55.708;37.478;2023-05-03T07:08:14;99586.19;;;18.08;32.03
49825;BME280;35714;55.708;37.478;2023-05-03T07:10:40;99593.09;;;18.00;32.46
49825;BME280;35714;55.708;37.478;2023-05-03T07:13:06;99596.41;;;17.81;32.43
49825;BME280;35714;55.708;37.478;2023-05-03T07:15:32;99590.97;;;17.56;32.92
49825;BME280;35714;55.708;37.478;2023-05-03T07:17:57;99593.47;;;17.47;33.19
49825;BME280;35714;55.708;37.478;2023-05-03T07:20:23;99586.09;;;17.27;33.60
49825;BME280;35714;55.708;37.478;2023-05-03T07:22:50;99588.84;;;17.37;33.96
49825;BME280;35714;55.708;37.478;2023-05-03T07:25:16;99598.31;;;18.01;33.05
49825;BME280;35714;55.708;37.478;2023-05-03T07:27:42;99593.44;;;18.88;32.01
49825;BME280;35714;55.708;37.478;2023-05-03T07:30:08;99606.25;;;19.37;30.55
49825;BME280;35714;55.708;37.478;2023-05-03T07:32:34;99599.66;;;19.38;30.34
49825;BME280;35714;55.708;37.478;2023-05-03T07:35:00;99604.53;;;19.12;30.59
49825;BME280;35714;55.708;37.478;2023-05-03T07:37:26;99617.31;;;18.98;30.81
49825;BME280;35714;55.708;37.478;2023-05-03T07:39:52;99616.66;;;18.61;31.07
49825;BME280;35714;55.708;37.478;2023-05-03T07:42:18;99608.56;;;18.35;31.63
49825;BME280;35714;55.708;37.478;2023-05-03T07:44:43;99622.78;;;18.48;31.38
49825;BME280;35714;55.708;37.478;2023-05-03T07:47:09;99615.78;;;18.21;31.45
49825;BME280;35714;55.708;37.478;2023-05-03T07:49:38;99621.88;;;18.02;32.26
49825;BME280;35714;55.708;37.478;2023-05-03T07:52:04;99619.97;;;17.82;32.40
49825;BME280;35714;55.708;37.478;2023-05-03T07:54:30;99639.47;;;17.86;32.17
49825;BME280;35714;55.708;37.478;2023-05-03T07:56:55;99627.41;;;17.77;32.58
49825;BME280;35714;55.708;37.478;2023-05-03T07:59:21;99635.94;;;17.70;32.92
49825;BME280;35714;55.708;37.478;2023-05-03T08:01:47;99628.84;;;17.48;33.14
49825;BME280;35714;55.708;37.478;2023-05-03T08:04:12;99631.84;;;17.37;33.50
49825;BME280;35714;55.708;37.478;2023-05-03T08:06:38;99642.28;;;17.29;33.53
49825;BME280;35714;55.708;37.478;2023-05-03T08:09:04;99642.81;;;17.26;33.39
49825;BME280;35714;55.708;37.478;2023-05-03T08:11:30;99642.78;;;16.95;34.16
49825;BME280;35714;55.708;37.478;2023-05-03T08:13:56;99642.69;;;16.65;35.18
49825;BME280;35714;55.708;37.478;2023-05-03T08:16:21;99640.47;;;16.51;35.41
49825;BME280;35714;55.708;37.478;2023-05-03T08:18:47;99644.53;;;16.38;35.88
49825;BME280;35714;55.708;37.478;2023-05-03T08:21:13;99643.63;;;16.17;35.93
49825;BME280;35714;55.708;37.478;2023-05-03T08:23:41;99651.28;;;16.15;36.04
49825;BME280;35714;55.708;37.478;2023-05-03T08:26:06;99658.34;;;16.06;36.66
49825;BME280;35714;55.708;37.478;2023-05-03T08:28:34;99656.34;;;15.91;36.99
49825;BME280;35714;55.708;37.478;2023-05-03T08:31:00;99675.75;;;15.90;37.30
49825;BME280;35714;55.708;37.478;2023-05-03T08:33:29;99668.63;;;15.83;37.13
49825;BME280;35714;55.708;37.478;2023-05-03T08:35:55;99686.31;;;15.76;38.67
49825;BME280;35714;55.708;37.478;2023-05-03T08:38:20;99665.63;;;15.52;39.97
49825;BME280;35714;55.708;37.478;2023-05-03T08:40:47;99669.34;;;15.36;40.86
49825;BME280;35714;55.708;37.478;2023-05-03T08:43:19;99674.38;;;15.17;41.58
49825;BME280;35714;55.708;37.478;2023-05-03T08:45:45;99664.53;;;14.89;41.97
49825;BME280;35714;55.708;37.478;2023-05-03T08:48:12;99681.88;;;14.77;42.08
49825;BME280;35714;55.708;37.478;2023-05-03T08:50:39;99659.78;;;14.57;42.51
49825;BME280;35714;55.708;37.478;2023-05-03T08:53:08;99649.13;;;14.33;43.71
49825;BME280;35714;55.708;37.478;2023-05-03T08:55:34;99642.31;;;14.08;44.64
49825;BME280;35714;55.708;37.478;2023-05-03T08:57:59;99650.34;;;13.98;44.92
49825;BME280;35714;55.708;37.478;2023-05-03T09:00:28;99649.09;;;13.89;44.83
49825;BME280;35714;55.708;37.478;2023-05-03T09:02:54;99647.31;;;13.78;45.54
49825;BME280;35714;55.708;37.478;2023-05-03T09:08:06;99678.97;;;13.79;46.07
49825;BME280;35714;55.708;37.478;2023-05-03T09:10:35;99680.22;;;13.71;46.00
49825;BME280;35714;55.708;37.478;2023-05-03T09:13:01;99667.41;;;13.71;45.92
49825;BME280;35714;55.708;37.478;2023-05-03T09:15:28;99665.47;;;13.72;45.44
49825;BME280;35714;55.708;37.478;2023-05-03T09:18:09;99673.06;;;13.87;45.38
49825;BME280;35714;55.708;37.478;2023-05-03T09:20:37;99680.88;;;14.00;44.85
49825;BME280;35714;55.708;37.478;2023-05-03T09:23:05;99686.25;;;14.12;44.48
49825;BME280;35714;55.708;37.478;2023-05-03T09:25:48;99674.53;;;14.12;44.68
49825;BME280;35714;55.708;37.478;2023-05-03T09:28:16;99677.91;;;14.02;44.90
49825;BME280;35714;55.708;37.478;2023-05-03T09:30:43;99684.09;;;13.97;45.01
49825;BME280;35714;55.708;37.478;2023-05-03T09:33:09;99685.59;;;14.05;44.85
49825;BME280;35714;55.708;37.478;2023-05-03T09:35:59;99681.88;;;14.33;44.52
49825;BME280;35714;55.708;37.478;2023-05-03T09:38:27;99697.72;;;14.80;43.62
49825;BME280;35714;55.708;37.478;2023-05-03T09:40:53;99707.31;;;15.10;42.73
49825;BME280;35714;55.708;37.478;2023-05-03T09:43:19;99704.66;;;15.15;42.39
49825;BME280;35714;55.708;37.478;2023-05-03T09:45:44;99707.94;;;15.18;42.36
49825;BME280;35714;55.708;37.478;2023-05-03T09:48:11;99713.50;;;15.01;42.58
49825;BME280;35714;55.708;37.478;2023-05-03T09:50:37;99707.13;;;14.90;42.90
49825;BME280;35714;55.708;37.478;2023-05-03T09:53:04;99709.25;;;14.83;43.30
49825;BME280;35714;55.708;37.478;2023-05-03T09:55:38;99715.25;;;14.85;43.73
49825;BME280;35714;55.708;37.478;2023-05-03T09:58:05;99707.59;;;14.82;43.47
49825;BME280;35714;55.708;37.478;2023-05-03T10:00:41;99705.16;;;14.85;43.72
49825;BME280;35714;55.708;37.478;2023-05-03T10:03:17;99712.56;;;14.90;44.06
49825;BME280;35714;55.708;37.478;2023-05-03T10:05:49;99716.00;;;15.02;43.70
49825;BME280;35714;55.708;37.478;2023-05-03T10:08:51;99704.16;;;15.19;43.22
49825;BME280;35714;55.708;37.478;2023-05-03T10:11:23;99728.84;;;15.34;43.11
49825;BME280;35714;55.708;37.478;2023-05-03T10:13:51;99712.56;;;15.44;42.99
49825;BME280;35714;55.708;37.478;2023-05-03T10:16:22;99705.59;;;15.64;42.64
49825;BME280;35714;55.708;37.478;2023-05-03T10:18:55;99710.97;;;15.81;42.59
49825;BME280;35714;55.708;37.478;2023-05-03T10:24:18;99702.06;;;15.63;42.76
49825;BME280;35714;55.708;37.478;2023-05-03T10:26:45;99710.09;;;15.75;42.78
49825;BME280;35714;55.708;37.478;2023-05-03T10:32:03;99706.66;;;15.90;41.99
49825;BME280;35714;55.708;37.478;2023-05-03T10:34:33;99710.66;;;16.15;41.93
49825;BME280;35714;55.708;37.478;2023-05-03T10:37:07;99709.25;;;16.65;41.05
49825;BME280;35714;55.708;37.478;2023-05-03T10:39:34;99710.22;;;17.27;39.76
49825;BME280;35714;55.708;37.478;2023-05-03T10:42:04;99707.78;;;17.72;38.83
49825;BME280;35714;55.708;37.478;2023-05-03T10:47:12;99711.06;;;18.86;36.99
49825;BME280;35714;55.708;37.478;2023-05-03T10:49:38;99725.78;;;19.85;34.83
49825;BME280;35714;55.708;37.478;2023-05-03T10:55:22;99704.78;;;21.94;31.05
49825;BME280;35714;55.708;37.478;2023-05-03T10:57:53;99709.66;;;22.58;29.58
49825;BME280;35714;55.708;37.478;2023-05-03T11:00:28;99718.47;;;22.60;29.50
49825;BME280;35714;55.708;37.478;2023-05-03T11:05:47;99723.09;;;23.15;29.10
49825;BME280;35714;55.708;37.478;2023-05-03T11:08:13;99713.09;;;23.65;27.69
49825;BME280;35714;55.708;37.478;2023-05-03T11:10:42;99715.75;;;24.01;27.35
49825;BME280;35714;55.708;37.478;2023-05-03T11:13:08;99710.94;;;24.56;26.04
49825;BME280;35714;55.708;37.478;2023-05-03T11:15:34;99707.13;;;24.03;26.86
49825;BME280;35714;55.708;37.478;2023-05-03T11:18:01;99719.34;;;23.79;26.98
49825;BME280;35714;55.708;37.478;2023-05-03T11:20:27;99712.88;;;23.38;27.70
49825;BME280;35714;55.708;37.478;2023-05-03T11:22:52;99714.72;;;23.20;27.85
49825;BME280;35714;55.708;37.478;2023-05-03T11:25:18;99709.06;;;22.61;28.46
49825;BME280;35714;55.708;37.478;2023-05-03T11:27:44;99709.16;;;22.56;28.53
49825;BME280;35714;55.708;37.478;2023-05-03T11:30:12;99708.06;;;21.96;29.40
49825;BME280;35714;55.708;37.478;2023-05-03T11:32:40;99700.19;;;22.04;29.44
49825;BME280;35714;55.708;37.478;2023-05-03T11:35:06;99699.09;;;22.05;29.71
49825;BME280;35714;55.708;37.478;2023-05-03T11:37:33;99693.06;;;22.72;28.97
49825;BME280;35714;55.708;37.478;2023-05-03T11:39:59;99701.94;;;23.33;27.76
49825;BME280;35714;55.708;37.478;2023-05-03T11:42:25;99698.50;;;24.04;26.78
49825;BME280;35714;55.708;37.478;2023-05-03T11:44:55;99683.81;;;24.44;25.98
49825;BME280;35714;55.708;37.478;2023-05-03T11:47:21;99692.97;;;25.11;24.83
49825;BME280;35714;55.708;37.478;2023-05-03T11:49:54;99689.06;;;25.38;24.28
49825;BME280;35714;55.708;37.478;2023-05-03T11:52:24;99702.75;;;25.43;24.23
49825;BME280;35714;55.708;37.478;2023-05-03T11:54:50;99693.69;;;24.67;24.97
49825;BME280;35714;55.708;37.478;2023-05-03T11:57:16;99691.00;;;23.51;26.49
49825;BME280;35714;55.708;37.478;2023-05-03T11:59:43;99700.53;;;23.67;26.73
49825;BME280;35714;55.708;37.478;2023-05-03T12:02:12;99706.22;;;23.85;26.37
49825;BME280;35714;55.708;37.478;2023-05-03T12:04:40;99708.88;;;23.22;26.58
49825;BME280;35714;55.708;37.478;2023-05-03T12:07:08;99690.00;;;22.32;27.26
49825;BME280;35714;55.708;37.478;2023-05-03T12:09:34;99695.84;;;21.70;28.96
49825;BME280;35714;55.708;37.478;2023-05-03T12:12:02;99700.56;;;21.31;29.46
49825;BME280;35714;55.708;37.478;2023-05-03T12:14:58;99714.53;;;21.40;28.95
49825;BME280;35714;55.708;37.478;2023-05-03T12:20:19;99702.28;;;20.22;30.66
49825;BME280;35714;55.708;37.478;2023-05-03T12:22:54;99715.50;;;19.61;32.30
49825;BME280;35714;55.708;37.478;2023-05-03T12:25:21;99705.44;;;19.80;32.50
49825;BME280;35714;55.708;37.478;2023-05-03T12:27:47;99700.59;;;20.93;31.29
49825;BME280;35714;55.708;37.478;2023-05-03T12:30:13;99694.94;;;22.35;29.37
49825;BME280;35714;55.708;37.478;2023-05-03T12:32:39;99702.56;;;23.75;27.40
49825;BME280;35714;55.708;37.478;2023-05-03T12:35:06;99705.34;;;24.47;25.43
49825;BME280;35714;55.708;37.478;2023-05-03T12:37:35;99697.28;;;23.65;26.23
49825;BME280;35714;55.708;37.478;2023-05-03T12:40:02;99701.81;;;23.16;26.71
49825;BME280;35714;55.708;37.478;2023-05-03T12:42:30;99719.91;;;22.72;27.54
49825;BME280;35714;55.708;37.478;2023-05-03T12:44:59;99704.78;;;22.92;26.75
49825;BME280;35714;55.708;37.478;2023-05-03T12:47:26;99707.16;;;22.01;27.80
49825;BME280;35714;55.708;37.478;2023-05-03T12:49:52;99700.22;;;22.17;28.08
49825;BME280;35714;55.708;37.478;2023-05-03T12:52:20;99692.63;;;22.79;27.57
49825;BME280;35714;55.708;37.478;2023-05-03T12:54:50;99696.53;;;23.96;26.36
49825;BME280;35714;55.708;37.478;2023-05-03T12:57:16;99698.13;;;23.97;25.70
49825;BME280;35714;55.708;37.478;2023-05-03T12:59:42;99697.38;;;23.83;26.01
49825;BME280;35714;55.708;37.478;2023-05-03T13:02:11;99688.94;;;22.83;27.35
49825;BME280;35714;55.708;37.478;2023-05-03T13:04:38;99704.19;;;21.65;28.46
49825;BME280;35714;55.708;37.478;2023-05-03T13:07:04;99725.72;;;20.43;30.93
49825;BME280;35714;55.708;37.478;2023-05-03T13:09:30;99705.69;;;19.50;32.27
49825;BME280;35714;55.708;37.478;2023-05-03T13:11:56;99702.22;;;18.94;33.69
49825;BME280;35714;55.708;37.478;2023-05-03T13:14:21;99705.69;;;18.55;34.60
49825;BME280;35714;55.708;37.478;2023-05-03T13:16:47;99708.56;;;18.19;35.22
49825;BME280;35714;55.708;37.478;2023-05-03T13:19:16;99704.50;;;17.96;35.79
49825;BME280;35714;55.708;37.478;2023-05-03T13:21:42;99715.19;;;17.77;36.74
49825;BME280;35714;55.708;37.478;2023-05-03T13:24:08;99715.72;;;17.58;36.75